createdAt,value
2023-07-03T00:00:55.380Z,86.38
2023-07-03T00:03:41.733Z,86.27
2023-07-03T00:06:08.271Z,86.19
2023-07-03T00:08:34.778Z,86.33
2023-07-03T00:11:01.482Z,86.43
2023-07-03T00:13:28.031Z,86.38
2023-07-03T00:15:58.063Z,86.43
2023-07-03T00:18:24.585Z,86.58
2023-07-03T00:20:50.992Z,86.83
2023-07-03T00:23:17.486Z,87.09
2023-07-03T00:25:43.944Z,87.32
2023-07-03T00:28:10.270Z,87.45
2023-07-03T00:30:36.963Z,87.63
2023-07-03T00:33:03.351Z,87.56
2023-07-03T00:35:29.746Z,87.63
2023-07-03T00:37:56.107Z,87.52
2023-07-03T00:40:22.496Z,86.96
2023-07-03T00:42:48.893Z,87.16
2023-07-03T00:45:15.311Z,87.86
2023-07-03T00:47:41.764Z,88.09
2023-07-03T00:50:09.183Z,88.15
2023-07-03T00:52:35.620Z,88.48
2023-07-03T00:55:01.966Z,88.69
2023-07-03T00:57:28.504Z,88.72
2023-07-03T00:59:54.912Z,88.61
2023-07-03T01:02:34.458Z,88.89
2023-07-03T01:05:16.755Z,89.06
2023-07-03T01:07:44.278Z,89.29
2023-07-03T01:10:13.413Z,89.56
2023-07-03T01:12:42.297Z,89.72
2023-07-03T01:15:10.778Z,89.77
2023-07-03T01:17:38.840Z,89.37
2023-07-03T01:20:06.258Z,89.61
2023-07-03T01:22:36.189Z,89.52
2023-07-03T01:25:06.541Z,89.81
2023-07-03T01:27:34.842Z,89.82
2023-07-03T01:30:02.164Z,89.89
2023-07-03T01:32:30.069Z,90.17
2023-07-03T01:34:57.082Z,90.16
2023-07-03T01:37:25.116Z,90.36
2023-07-03T01:39:52.102Z,90.59
2023-07-03T01:42:20.716Z,90.70
2023-07-03T01:44:47.227Z,90.84
2023-07-03T01:47:13.978Z,91.00
2023-07-03T01:49:40.382Z,91.06
2023-07-03T01:52:11.329Z,91.01
2023-07-03T01:54:40.681Z,90.91
2023-07-03T01:57:07.845Z,91.03
2023-07-03T01:59:34.763Z,90.93
2023-07-03T02:02:01.250Z,90.87
2023-07-03T02:04:30.958Z,90.77
2023-07-03T02:06:58.318Z,90.54
2023-07-03T02:09:25.501Z,90.58
2023-07-03T02:11:52.712Z,90.88
2023-07-03T02:14:19.255Z,90.67
2023-07-03T02:16:45.820Z,90.82
2023-07-03T02:19:12.177Z,90.98
2023-07-03T02:21:38.583Z,90.91
2023-07-03T02:24:04.949Z,90.82
2023-07-03T02:26:32.102Z,91.14
2023-07-03T02:28:58.394Z,91.48
2023-07-03T02:31:24.883Z,91.69
2023-07-03T02:33:51.264Z,91.68
2023-07-03T02:36:17.623Z,91.34
2023-07-03T02:38:43.970Z,91.61
2023-07-03T02:41:10.672Z,91.46
2023-07-03T02:43:37.043Z,91.59
2023-07-03T02:46:04.332Z,91.95
2023-07-03T02:48:30.832Z,92.03
2023-07-03T02:50:57.633Z,92.18
2023-07-03T02:53:24.550Z,92.33
2023-07-03T02:55:56.678Z,92.14
2023-07-03T02:58:24.399Z,92.08
2023-07-03T03:00:50.876Z,91.92
2023-07-03T03:03:17.680Z,92.04
2023-07-03T03:05:44.165Z,91.88
2023-07-03T03:08:10.835Z,91.76
2023-07-03T03:10:37.554Z,91.90
2023-07-03T03:13:04.349Z,92.21
2023-07-03T03:15:33.828Z,92.01
2023-07-03T03:18:00.473Z,91.65
2023-07-03T03:20:27.000Z,91.74
2023-07-03T03:22:53.349Z,91.84
2023-07-03T03:25:19.788Z,92.11
2023-07-03T03:27:46.160Z,92.32
2023-07-03T03:30:12.630Z,92.73
2023-07-03T03:32:40.154Z,92.81
2023-07-03T03:35:06.979Z,92.77
2023-07-03T03:37:33.712Z,92.79
2023-07-03T03:40:00.941Z,92.76
2023-07-03T03:42:27.399Z,92.29
2023-07-03T03:44:54.478Z,92.27
2023-07-03T03:47:22.805Z,92.50
2023-07-03T03:49:49.689Z,92.47
2023-07-03T03:52:16.072Z,92.53
2023-07-03T03:54:42.492Z,92.66
2023-07-03T03:57:08.953Z,92.86
2023-07-03T03:59:35.770Z,93.08
2023-07-03T04:02:02.243Z,93.05
2023-07-03T04:04:28.807Z,93.29
2023-07-03T04:06:55.259Z,93.25
2023-07-03T04:09:21.583Z,93.21
2023-07-03T04:11:47.943Z,92.93
2023-07-03T04:14:14.333Z,92.87
2023-07-03T04:16:40.671Z,92.68
2023-07-03T04:19:07.067Z,92.37
2023-07-03T04:21:33.370Z,92.03
2023-07-03T04:23:59.671Z,91.90
2023-07-03T04:26:26.074Z,91.84
2023-07-03T04:28:52.454Z,91.64
2023-07-03T04:31:18.985Z,91.47
2023-07-03T04:33:45.409Z,91.02
2023-07-03T04:36:12.362Z,90.80
2023-07-03T04:38:39.629Z,90.47
2023-07-03T04:41:05.919Z,90.17
2023-07-03T04:43:32.253Z,89.62
2023-07-03T04:45:58.673Z,89.33
2023-07-03T04:48:25.224Z,89.03
2023-07-03T04:50:51.545Z,88.76
2023-07-03T04:53:18.604Z,88.64
2023-07-03T04:55:44.909Z,88.29
2023-07-03T04:58:11.220Z,87.88
2023-07-03T05:00:37.601Z,87.67
2023-07-03T05:03:04.342Z,87.07
2023-07-03T05:05:30.847Z,86.61
2023-07-03T05:07:58.898Z,86.40
2023-07-03T05:10:25.677Z,86.33
2023-07-03T05:12:52.087Z,85.97
2023-07-03T05:15:19.393Z,85.86
2023-07-03T05:17:49.856Z,86.00
2023-07-03T05:20:17.388Z,85.68
2023-07-03T05:22:44.507Z,85.09
2023-07-03T05:25:11.810Z,84.53
2023-07-03T05:27:38.670Z,84.38
2023-07-03T05:30:06.003Z,84.63
2023-07-03T05:32:32.563Z,84.29
2023-07-03T05:35:02.534Z,83.21
2023-07-03T05:37:29.204Z,83.43
2023-07-03T05:39:55.503Z,83.00
2023-07-03T05:42:21.867Z,82.88
2023-07-03T05:44:48.205Z,82.19
2023-07-03T05:47:15.408Z,81.38
2023-07-03T05:49:41.999Z,81.25
2023-07-03T05:52:09.219Z,80.83
2023-07-03T05:54:35.556Z,80.81
2023-07-03T05:57:09.340Z,79.84
2023-07-03T05:59:36.667Z,79.82
2023-07-03T06:02:04.472Z,78.59
2023-07-03T06:04:30.957Z,78.68
2023-07-03T06:06:57.426Z,78.37
2023-07-03T06:09:24.362Z,77.72
2023-07-03T06:11:50.773Z,77.90
2023-07-03T06:14:17.841Z,77.21
2023-07-03T06:16:45.261Z,76.57
2023-07-03T06:19:12.268Z,76.67
2023-07-03T06:21:38.798Z,74.99
2023-07-03T06:24:05.764Z,74.47
2023-07-03T06:26:32.228Z,74.40
2023-07-03T06:28:58.566Z,74.50
2023-07-03T06:31:24.931Z,73.51
2023-07-03T06:33:51.500Z,72.64
2023-07-03T06:36:17.861Z,72.61
2023-07-03T06:38:44.522Z,72.63
2023-07-03T06:41:10.911Z,72.36
2023-07-03T06:43:37.254Z,71.19
2023-07-03T06:46:03.625Z,70.21
2023-07-03T06:48:29.947Z,69.82
2023-07-03T06:51:05.938Z,68.88
2023-07-03T06:53:32.356Z,69.32
2023-07-03T06:55:59.537Z,67.77
2023-07-03T06:58:26.577Z,68.07
2023-07-03T07:00:53.034Z,67.28
2023-07-03T07:03:19.641Z,66.86
2023-07-03T07:05:46.235Z,66.62
2023-07-03T07:08:12.813Z,66.81
2023-07-03T07:10:39.411Z,66.58
2023-07-03T07:13:06.573Z,67.29
2023-07-03T07:15:37.486Z,67.11
2023-07-03T07:18:05.197Z,66.14
2023-07-03T07:20:36.157Z,64.55
2023-07-03T07:23:02.575Z,64.36
2023-07-03T07:25:28.880Z,63.87
2023-07-03T07:27:55.331Z,63.56
2023-07-03T07:30:21.705Z,63.11
2023-07-03T07:32:48.648Z,62.57
2023-07-03T07:35:15.262Z,62.66
2023-07-03T07:37:41.927Z,61.25
2023-07-03T07:40:09.083Z,61.12
2023-07-03T07:42:35.849Z,60.14
2023-07-03T07:45:02.547Z,58.86
2023-07-03T07:47:29.540Z,58.76
2023-07-03T07:49:55.928Z,58.38
2023-07-03T07:52:22.368Z,58.31
2023-07-03T07:54:48.671Z,57.28
2023-07-03T07:57:15.023Z,56.15
2023-07-03T07:59:41.345Z,56.20
2023-07-03T08:02:07.870Z,56.22
2023-07-03T08:04:34.408Z,55.23
2023-07-03T08:07:00.992Z,54.74
2023-07-03T08:09:27.393Z,54.77
2023-07-03T08:11:53.771Z,55.02
2023-07-03T08:14:20.205Z,55.12
2023-07-03T08:16:46.735Z,54.63
2023-07-03T08:19:13.075Z,53.84
2023-07-03T08:21:39.380Z,52.51
2023-07-03T08:24:06.435Z,52.69
2023-07-03T08:26:32.964Z,52.26
2023-07-03T08:28:59.355Z,51.24
2023-07-03T08:31:25.780Z,50.62
2023-07-03T08:33:52.292Z,50.52
2023-07-03T08:38:48.076Z,50.23
2023-07-03T08:41:15.308Z,49.98
2023-07-03T08:43:43.234Z,49.38
2023-07-03T08:46:11.807Z,49.73
2023-07-03T08:48:39.147Z,49.62
2023-07-03T08:51:07.648Z,50.09
2023-07-03T08:53:39.463Z,49.69
2023-07-03T08:56:11.902Z,47.96
2023-07-03T08:58:38.278Z,48.74
2023-07-03T09:01:23.334Z,47.77
2023-07-03T09:03:59.800Z,46.66
2023-07-03T09:06:40.425Z,46.31
2023-07-03T09:09:06.793Z,45.65
2023-07-03T09:11:35.828Z,45.53
2023-07-03T09:14:03.336Z,44.27
2023-07-03T09:16:30.717Z,44.46
2023-07-03T09:19:00.069Z,43.37
2023-07-03T09:21:28.682Z,43.73
2023-07-03T09:24:00.611Z,43.35
2023-07-03T09:26:32.219Z,43.61
2023-07-03T09:28:58.666Z,43.59
2023-07-03T09:31:26.874Z,42.77
2023-07-03T09:33:53.441Z,42.87
2023-07-03T09:36:28.677Z,42.08
2023-07-03T09:38:55.072Z,42.30
2023-07-03T09:41:29.316Z,42.22
2023-07-03T09:43:55.960Z,41.73
2023-07-03T09:46:23.070Z,41.34
2023-07-03T09:48:50.669Z,41.28
2023-07-03T09:51:20.953Z,41.54
2023-07-03T09:53:47.272Z,41.22
2023-07-03T09:56:16.663Z,41.70
2023-07-03T09:58:48.562Z,42.02
2023-07-03T10:04:04.541Z,41.34
2023-07-03T10:07:06.595Z,41.81
2023-07-03T10:12:11.453Z,42.15
2023-07-03T10:14:41.121Z,41.55
2023-07-03T10:17:08.628Z,40.97
2023-07-03T10:19:35.084Z,41.00
2023-07-03T10:22:01.816Z,40.32
2023-07-03T10:24:28.339Z,39.88
2023-07-03T10:26:57.876Z,39.72
2023-07-03T10:29:26.698Z,40.30
2023-07-03T10:31:55.746Z,39.19
2023-07-03T10:34:48.282Z,39.26
2023-07-03T10:37:17.840Z,37.63
2023-07-03T10:39:58.749Z,36.45
2023-07-03T10:42:30.097Z,34.77
2023-07-03T10:44:59.568Z,33.51
2023-07-03T10:47:29.006Z,32.69
2023-07-03T10:49:55.487Z,33.22
2023-07-03T10:52:42.605Z,33.22
2023-07-03T10:55:18.502Z,32.99
2023-07-03T10:57:52.408Z,31.76
2023-07-03T11:00:25.403Z,31.62
2023-07-03T11:02:59.805Z,31.61
2023-07-03T11:05:29.261Z,30.60
2023-07-03T11:08:00.787Z,29.90
2023-07-03T11:10:37.067Z,30.33
2023-07-03T11:13:16.221Z,29.75
2023-07-03T11:16:05.450Z,30.45
2023-07-03T11:23:54.184Z,30.08
2023-07-03T11:28:52.675Z,28.64
2023-07-03T11:31:19.613Z,28.50
2023-07-03T11:36:49.215Z,28.90
2023-07-03T11:44:39.914Z,29.28
2023-07-03T11:47:25.675Z,29.30
2023-07-03T11:49:58.587Z,28.93
2023-07-03T11:52:28.992Z,27.64
2023-07-03T11:54:59.974Z,26.27
2023-07-03T11:57:33.866Z,25.80
2023-07-03T12:00:17.665Z,26.08
2023-07-03T12:02:44.118Z,25.94
2023-07-03T12:05:10.554Z,25.73
2023-07-03T12:07:36.928Z,25.66
2023-07-03T12:10:32.700Z,25.24
2023-07-03T12:13:17.824Z,26.24
2023-07-03T12:15:44.240Z,26.56
2023-07-03T12:18:11.220Z,26.84
2023-07-03T12:20:38.155Z,27.62
2023-07-03T12:23:04.686Z,28.70
2023-07-03T12:25:31.103Z,29.23
2023-07-03T12:28:08.698Z,30.18
2023-07-03T12:30:35.086Z,30.43
2023-07-03T12:33:01.468Z,31.30
2023-07-03T12:35:32.171Z,30.30
2023-07-03T12:38:09.986Z,29.95
2023-07-03T12:40:43.738Z,29.81
2023-07-03T12:43:10.568Z,30.51
2023-07-03T12:45:37.172Z,30.65
2023-07-03T12:48:04.752Z,30.94
2023-07-03T12:50:32.022Z,29.57
2023-07-03T12:52:59.294Z,28.95
2023-07-03T12:55:35.247Z,28.62
2023-07-03T12:58:01.773Z,27.57
2023-07-03T13:00:32.312Z,26.31
2023-07-03T13:02:59.920Z,25.45
2023-07-03T13:05:26.868Z,25.10
2023-07-03T13:07:53.358Z,23.61
2023-07-03T13:10:20.602Z,22.75
2023-07-03T13:13:02.349Z,22.17
2023-07-03T13:15:30.663Z,20.99
2023-07-03T13:18:04.932Z,19.62
2023-07-03T13:20:31.454Z,19.53
2023-07-03T13:22:59.772Z,20.27
2023-07-03T13:25:36.835Z,20.11
2023-07-03T13:28:06.377Z,19.42
2023-07-03T13:30:34.229Z,19.37
2023-07-03T13:33:08.494Z,19.77
2023-07-03T13:35:35.098Z,20.32
2023-07-03T13:38:11.749Z,19.94
2023-07-03T13:40:38.152Z,19.98
2023-07-03T13:43:04.496Z,20.45
2023-07-03T13:45:31.463Z,20.85
2023-07-03T13:47:58.003Z,21.15
2023-07-03T13:50:24.379Z,20.53
2023-07-03T13:52:50.796Z,20.72
2023-07-03T13:55:17.154Z,20.94
2023-07-03T13:57:43.540Z,21.23
2023-07-03T14:00:10.299Z,21.50
2023-07-03T14:02:48.085Z,22.90
2023-07-03T14:05:16.050Z,23.41
2023-07-03T14:07:42.488Z,23.45
2023-07-03T14:10:14.106Z,22.72
2023-07-03T14:12:42.904Z,22.02
2023-07-03T14:15:17.602Z,20.55
2023-07-03T14:17:44.420Z,19.93
2023-07-03T14:20:11.468Z,20.39
2023-07-03T14:22:38.614Z,20.27
2023-07-03T14:25:05.619Z,20.86
2023-07-03T14:27:35.423Z,20.93
2023-07-03T14:30:01.814Z,21.24
2023-07-03T14:32:39.851Z,21.05
2023-07-03T14:35:14.660Z,20.40
2023-07-03T14:37:41.032Z,20.87
2023-07-03T14:40:07.662Z,20.83
2023-07-03T14:42:34.021Z,20.29
2023-07-03T14:45:00.393Z,20.27
2023-07-03T14:47:26.788Z,20.19
2023-07-03T14:49:53.416Z,19.55
2023-07-03T14:52:20.616Z,19.12
2023-07-03T14:54:47.379Z,19.76
2023-07-03T14:57:14.447Z,20.24
2023-07-03T14:59:42.441Z,20.97
2023-07-03T15:02:09.181Z,21.15
2023-07-03T15:04:35.743Z,22.27
2023-07-03T15:07:02.097Z,23.16
2023-07-03T15:09:28.444Z,23.44
2023-07-03T15:11:54.913Z,23.65
2023-07-03T15:14:21.228Z,22.89
2023-07-03T15:16:47.684Z,23.12
2023-07-03T15:19:14.020Z,23.65
2023-07-03T15:21:40.379Z,23.59
2023-07-03T15:24:07.520Z,22.72
2023-07-03T15:26:34.140Z,22.04
2023-07-03T15:29:00.562Z,21.84
2023-07-03T15:31:27.058Z,23.06
2023-07-03T15:33:53.984Z,23.79
2023-07-03T15:36:20.338Z,24.10
2023-07-03T15:38:46.848Z,23.73
2023-07-03T15:41:13.239Z,23.24
2023-07-03T15:43:39.617Z,22.62
2023-07-03T15:46:06.034Z,22.00
2023-07-03T15:48:32.712Z,21.01
2023-07-03T15:50:59.819Z,20.33
2023-07-03T15:53:26.826Z,20.44
2023-07-03T15:56:02.881Z,20.09
2023-07-03T15:58:30.845Z,20.09
2023-07-03T16:01:06.493Z,19.73
2023-07-03T16:03:34.733Z,19.19
2023-07-03T16:06:03.825Z,19.11
2023-07-03T16:08:31.070Z,19.37
2023-07-03T16:10:57.486Z,19.56
2023-07-03T16:13:25.888Z,19.53
2023-07-03T16:15:52.639Z,19.16
2023-07-03T16:18:19.132Z,18.83
2023-07-03T16:20:51.334Z,19.17
2023-07-03T16:23:17.713Z,19.40
2023-07-03T16:25:48.594Z,19.41
2023-07-03T16:28:15.298Z,19.16
2023-07-03T16:30:41.742Z,19.22
2023-07-03T16:33:08.200Z,19.39
2023-07-03T16:35:34.575Z,19.02
2023-07-03T16:38:00.911Z,19.36
2023-07-03T16:40:28.567Z,19.30
2023-07-03T16:42:55.041Z,19.45
2023-07-03T16:45:21.476Z,19.37
2023-07-03T16:47:47.998Z,19.58
2023-07-03T16:50:14.442Z,19.86
2023-07-03T16:52:40.794Z,20.18
2023-07-03T16:55:07.321Z,20.17
2023-07-03T16:57:33.666Z,20.67
2023-07-03T17:00:00.101Z,20.46
2023-07-03T17:02:26.596Z,20.57
2023-07-03T17:04:52.962Z,21.02
2023-07-03T17:07:19.447Z,21.11
2023-07-03T17:09:45.874Z,21.42
2023-07-03T17:12:12.282Z,21.50
2023-07-03T17:14:38.643Z,21.70
2023-07-03T17:17:07.523Z,22.27
2023-07-03T17:19:33.950Z,22.39
2023-07-03T17:22:00.327Z,22.99
2023-07-03T17:24:26.623Z,23.68
2023-07-03T17:26:53.042Z,24.72
2023-07-03T17:29:19.525Z,25.65
2023-07-03T17:31:45.995Z,26.50
2023-07-03T17:34:12.787Z,27.27
2023-07-03T17:36:39.172Z,28.12
2023-07-03T17:39:05.520Z,28.92
2023-07-03T17:41:31.848Z,29.88
2023-07-03T17:43:58.228Z,30.27
2023-07-03T17:46:27.636Z,30.76
2023-07-03T17:48:54.023Z,31.45
2023-07-03T17:51:20.440Z,31.74
2023-07-03T17:53:46.849Z,32.45
2023-07-03T17:56:13.268Z,33.23
2023-07-03T17:58:39.674Z,33.46
2023-07-03T18:01:06.083Z,34.01
2023-07-03T18:03:32.635Z,34.22
2023-07-03T18:05:59.169Z,34.63
2023-07-03T18:08:25.671Z,34.89
2023-07-03T18:10:52.090Z,35.12
2023-07-03T18:13:18.653Z,35.45
2023-07-03T18:15:49.728Z,35.80
2023-07-03T18:18:21.374Z,36.23
2023-07-03T18:20:48.353Z,36.66
2023-07-03T18:23:14.715Z,36.86
2023-07-03T18:25:41.213Z,37.12
2023-07-03T18:28:08.310Z,37.87
2023-07-03T18:30:34.672Z,38.43
2023-07-03T18:33:01.141Z,38.94
2023-07-03T18:35:27.602Z,39.00
2023-07-03T18:37:54.021Z,39.12
2023-07-03T18:40:20.463Z,39.56
2023-07-03T18:42:46.893Z,40.35
2023-07-03T18:45:13.960Z,40.72
2023-07-03T18:47:40.426Z,41.19
2023-07-03T18:50:07.921Z,41.67
2023-07-03T18:52:34.404Z,42.16
2023-07-03T18:55:00.921Z,42.51
2023-07-03T18:57:27.451Z,42.79
2023-07-03T18:59:53.767Z,42.94
2023-07-03T19:02:20.150Z,43.20
2023-07-03T19:04:46.604Z,43.50
2023-07-03T19:07:13.002Z,43.56
2023-07-03T19:09:39.383Z,43.67
2023-07-03T19:12:08.066Z,43.96
2023-07-03T19:14:35.957Z,44.36
2023-07-03T19:17:02.954Z,44.60
2023-07-03T19:19:36.662Z,44.84
2023-07-03T19:22:03.156Z,45.28
2023-07-03T19:24:32.057Z,45.77
2023-07-03T19:26:58.395Z,46.34
2023-07-03T19:29:24.875Z,46.71
2023-07-03T19:31:51.237Z,47.27
2023-07-03T19:34:17.616Z,47.73
2023-07-03T19:36:44.446Z,48.86
2023-07-03T19:39:10.924Z,49.80
2023-07-03T19:41:39.806Z,50.42
2023-07-03T19:44:07.814Z,51.44
2023-07-03T19:46:35.314Z,51.83
2023-07-03T19:49:05.873Z,51.71
2023-07-03T19:51:32.889Z,51.59
2023-07-03T19:53:59.248Z,52.00
2023-07-03T19:56:25.819Z,52.49
2023-07-03T19:58:52.252Z,53.59
2023-07-03T20:01:18.952Z,54.28
2023-07-03T20:03:45.708Z,54.65
2023-07-03T20:06:13.282Z,55.45
2023-07-03T20:08:39.640Z,55.70
2023-07-03T20:11:06.138Z,56.18
2023-07-03T20:13:32.588Z,56.40
2023-07-03T20:16:03.210Z,56.54
2023-07-03T20:18:29.852Z,56.68
2023-07-03T20:20:56.378Z,56.81
2023-07-03T20:23:22.756Z,57.29
2023-07-03T20:25:52.959Z,57.78
2023-07-03T20:28:19.627Z,57.92
2023-07-03T20:30:46.739Z,57.99
2023-07-03T20:33:13.158Z,58.80
2023-07-03T20:35:39.594Z,58.82
2023-07-03T20:38:05.987Z,59.01
2023-07-03T20:40:32.861Z,59.39
2023-07-03T20:42:59.321Z,59.73
2023-07-03T20:45:26.362Z,60.16
2023-07-03T20:47:52.883Z,60.02
2023-07-03T20:50:19.300Z,60.00
2023-07-03T20:52:45.768Z,60.39
2023-07-03T20:55:12.118Z,60.81
2023-07-03T20:57:38.481Z,61.06
2023-07-03T21:00:05.049Z,61.27
2023-07-03T21:02:32.051Z,61.22
2023-07-03T21:04:59.185Z,61.63
2023-07-03T21:07:25.626Z,62.09
2023-07-03T21:09:52.301Z,62.52
2023-07-03T21:12:18.654Z,62.59
2023-07-03T21:14:45.049Z,63.00
2023-07-03T21:17:11.610Z,63.24
2023-07-03T21:19:37.998Z,62.67
2023-07-03T21:22:04.577Z,62.40
2023-07-03T21:24:31.062Z,62.30
2023-07-03T21:26:57.478Z,62.19
2023-07-03T21:29:23.968Z,62.24
2023-07-03T21:31:50.435Z,62.21
2023-07-03T21:34:16.860Z,62.24
2023-07-03T21:36:43.324Z,62.39
2023-07-03T21:39:10.273Z,62.35
2023-07-03T21:41:37.464Z,62.13
2023-07-03T21:44:14.012Z,61.85
2023-07-03T21:46:40.673Z,61.93
2023-07-03T21:49:10.233Z,61.87
2023-07-03T21:51:36.625Z,62.03
2023-07-03T21:54:03.040Z,62.42
2023-07-03T21:56:30.057Z,62.90
2023-07-03T21:59:01.266Z,63.32
2023-07-03T22:01:38.104Z,63.68
2023-07-03T22:04:05.831Z,64.04
2023-07-03T22:06:32.297Z,64.20
2023-07-03T22:08:59.006Z,64.12
2023-07-03T22:11:26.189Z,63.97
2023-07-03T22:13:52.599Z,63.89
2023-07-03T22:16:19.676Z,64.39
2023-07-03T22:18:46.131Z,64.63
2023-07-03T22:21:13.055Z,65.03
2023-07-03T22:23:39.542Z,65.15
2023-07-03T22:26:05.942Z,64.93
2023-07-03T22:28:32.379Z,65.06
2023-07-03T22:30:58.796Z,65.41
2023-07-03T22:33:25.351Z,65.49
2023-07-03T22:35:52.623Z,65.62
2023-07-03T22:38:19.420Z,65.81
2023-07-03T22:40:48.473Z,65.99
2023-07-03T22:43:14.869Z,66.21
2023-07-03T22:45:41.194Z,66.65
2023-07-03T22:48:07.669Z,66.83
2023-07-03T22:50:34.092Z,66.71
2023-07-03T22:53:00.459Z,66.78
2023-07-03T22:55:27.002Z,66.84
2023-07-03T22:57:53.397Z,66.81
2023-07-03T23:00:19.743Z,66.92
2023-07-03T23:02:46.254Z,67.28
2023-07-03T23:05:13.344Z,67.56
2023-07-03T23:07:39.982Z,67.51
2023-07-03T23:10:06.843Z,67.47
2023-07-03T23:12:33.707Z,67.29
2023-07-03T23:15:00.286Z,67.28
2023-07-03T23:17:30.891Z,67.25
2023-07-03T23:19:57.563Z,67.14
2023-07-03T23:22:24.695Z,67.23
2023-07-03T23:24:54.728Z,67.15
2023-07-03T23:27:21.518Z,67.15
2023-07-03T23:29:48.259Z,67.33
2023-07-03T23:32:14.812Z,67.36
2023-07-03T23:34:41.704Z,67.25
2023-07-03T23:37:08.312Z,67.24
2023-07-03T23:39:37.963Z,67.44
2023-07-03T23:42:05.185Z,67.80
2023-07-03T23:44:31.924Z,67.96
2023-07-03T23:46:58.364Z,68.05
2023-07-03T23:49:24.965Z,68.04
2023-07-03T23:51:51.403Z,68.13
2023-07-03T23:54:17.787Z,68.20
2023-07-03T23:56:45.327Z,68.17
2023-07-03T23:59:11.664Z,67.90
